Time;durP1;ratioP1;P1;durP2;ratioP2;P2;SDS_P1;SDS_P2;PMS_P1;PMS_P2;Temp;Humidity;BMP_temperature;BMP_pressure;BME280_temperature;BME280_humidity;BME280_pressure;Samples;Min_cycle;Max_cycle;Signal;HPM_P1;HPM_P2
2021/04/18 00:00:56;;;;;;;1.75;1.23;;;5.30;65.00;;;;;;5070126;28;20025;-75
2021/04/18 00:03:21;;;;;;;1.45;1.08;;;5.30;65.10;;;;;;5053232;28;20017;-74
2021/04/18 00:05:48;;;;;;;1.15;1.05;;;5.30;65.30;;;;;;5053679;28;20036;-75
2021/04/18 00:08:13;;;;;;;0.90;0.80;;;5.20;65.30;;;;;;5053867;28;20105;-75
2021/04/18 00:10:39;;;;;;;2.70;1.75;;;5.20;65.30;;;;;;5053417;28;20127;-75
2021/04/18 00:13:07;;;;;;;2.72;1.48;;;5.20;65.50;;;;;;5053484;28;20025;-75
2021/04/18 00:15:33;;;;;;;2.85;1.60;;;5.20;65.70;;;;;;5052334;28;20021;-75
2021/04/18 00:17:59;;;;;;;1.60;1.35;;;5.10;65.90;;;;;;5052983;28;20017;-76
2021/04/18 00:20:27;;;;;;;2.90;1.40;;;5.20;66.10;;;;;;5053577;28;20515;-74
2021/04/18 00:22:53;;;;;;;1.75;1.08;;;5.20;66.20;;;;;;5053415;28;20074;-75
2021/04/18 00:25:19;;;;;;;1.73;1.60;;;5.10;66.20;;;;;;5053239;28;20451;-75
2021/04/18 00:27:46;;;;;;;1.38;1.25;;;5.10;66.20;;;;;;5053297;28;20025;-75
2021/04/18 00:30:14;;;;;;;2.22;1.20;;;5.10;66.40;;;;;;5053208;28;20539;-76
2021/04/18 00:32:41;;;;;;;1.33;0.80;;;5.10;66.40;;;;;;5052692;28;20075;-75
2021/04/18 00:35:08;;;;;;;3.25;1.13;;;5.10;66.40;;;;;;5053323;28;20036;-75
2021/04/18 00:37:33;;;;;;;1.35;0.70;;;5.10;66.50;;;;;;5053240;28;20040;-75
2021/04/18 00:39:59;;;;;;;0.63;0.60;;;5.20;66.50;;;;;;5053239;28;20029;-76
2021/04/18 00:42:25;;;;;;;0.60;0.60;;;5.20;66.50;;;;;;5053239;28;20044;-75
2021/04/18 00:44:51;;;;;;;1.67;1.10;;;5.20;66.50;;;;;;5056968;28;20037;-75
2021/04/18 00:47:17;;;;;;;0.85;0.55;;;5.20;66.40;;;;;;5073140;28;20027;-75
2021/04/18 00:49:46;;;;;;;0.43;0.43;;;5.20;66.50;;;;;;5064717;28;20036;-76
2021/04/18 00:52:12;;;;;;;0.60;0.45;;;5.20;66.60;;;;;;5053111;28;20021;-75
2021/04/18 00:54:38;;;;;;;0.90;0.80;;;5.20;66.50;;;;;;5053018;28;20040;-75
2021/04/18 00:57:06;;;;;;;0.80;0.70;;;5.10;66.40;;;;;;5053104;28;20025;-75
2021/04/18 00:59:31;;;;;;;0.50;0.50;;;5.10;66.50;;;;;;5052544;28;20033;-75
2021/04/18 01:01:57;;;;;;;0.50;0.50;;;5.00;66.60;;;;;;5051536;28;20021;-74
2021/04/18 01:04:22;;;;;;;0.57;0.50;;;4.90;66.80;;;;;;5053063;28;20025;-75
2021/04/18 01:06:48;;;;;;;1.33;0.82;;;4.80;66.90;;;;;;5052966;28;20017;-74
2021/04/18 01:09:16;;;;;;;1.17;0.43;;;4.80;66.90;;;;;;5052813;28;20036;-75
2021/04/18 01:11:42;;;;;;;1.00;0.50;;;4.80;67.00;;;;;;5052833;28;20029;-75
2021/04/18 01:14:07;;;;;;;0.57;0.57;;;4.80;67.00;;;;;;5052419;28;20021;-76
2021/04/18 01:16:33;;;;;;;0.45;0.45;;;4.70;67.00;;;;;;5052923;28;20096;-75
2021/04/18 01:18:58;;;;;;;1.40;0.50;;;4.70;67.10;;;;;;5052871;28;20021;-74
2021/04/18 01:21:24;;;;;;;0.60;0.60;;;4.70;67.00;;;;;;5052901;28;20074;-75
2021/04/18 01:23:50;;;;;;;0.47;0.47;;;4.70;67.00;;;;;;5052872;28;20515;-75
2021/04/18 01:26:15;;;;;;;0.22;0.22;;;4.70;66.90;;;;;;5052674;28;20075;-75
2021/04/18 01:28:41;;;;;;;0.70;0.57;;;4.70;66.90;;;;;;5052335;28;20014;-74
2021/04/18 01:31:07;;;;;;;0.30;0.25;;;4.70;66.90;;;;;;5056638;28;20029;-75
2021/04/18 01:33:33;;;;;;;0.40;0.40;;;4.70;66.80;;;;;;5056428;28;20060;-74
2021/04/18 01:36:01;;;;;;;0.50;0.40;;;4.70;66.80;;;;;;5056506;28;20025;-75
2021/04/18 01:38:27;;;;;;;0.50;0.43;;;4.60;66.80;;;;;;5056412;28;20021;-75
2021/04/18 01:40:52;;;;;;;0.63;0.50;;;4.60;66.90;;;;;;5056174;28;20032;-75
2021/04/18 01:43:19;;;;;;;0.50;0.50;;;4.50;66.90;;;;;;5055963;28;20032;-74
2021/04/18 01:45:47;;;;;;;1.95;0.40;;;4.50;67.00;;;;;;5055151;28;20028;-75
2021/04/18 01:48:13;;;;;;;0.82;0.70;;;4.50;67.00;;;;;;5056559;28;20036;-76
2021/04/18 01:50:42;;;;;;;0.85;0.60;;;4.50;67.00;;;;;;5056505;28;20037;-74
2021/04/18 01:53:08;;;;;;;0.57;0.50;;;4.50;67.00;;;;;;5056454;28;20017;-75
2021/04/18 01:55:35;;;;;;;0.57;0.45;;;4.50;67.10;;;;;;5056218;28;20027;-76
2021/04/18 01:58:01;;;;;;;0.40;0.40;;;4.50;67.20;;;;;;5055772;28;20021;-76
2021/04/18 02:00:27;;;;;;;0.63;0.63;;;4.40;67.20;;;;;;5056179;28;20423;-76
2021/04/18 02:02:52;;;;;;;0.28;0.28;;;4.40;67.20;;;;;;5056122;28;20099;-76
2021/04/18 02:05:19;;;;;;;0.50;0.50;;;4.50;67.40;;;;;;5055872;28;20366;-76
2021/04/18 02:07:44;;;;;;;0.77;0.77;;;4.50;67.40;;;;;;5056012;28;20021;-76
2021/04/18 02:10:10;;;;;;;0.50;0.50;;;4.50;67.50;;;;;;5055892;28;20083;-76
2021/04/18 02:12:36;;;;;;;0.47;0.47;;;4.60;67.60;;;;;;5055086;28;20027;-75
2021/04/18 02:15:03;;;;;;;1.27;0.90;;;4.60;67.70;;;;;;5058883;28;20068;-75
2021/04/18 02:17:29;;;;;;;1.35;0.93;;;4.60;67.80;;;;;;5054431;28;20520;-75
2021/04/18 02:19:54;;;;;;;1.02;0.82;;;4.60;67.90;;;;;;5054499;28;20116;-75
2021/04/18 02:22:20;;;;;;;2.45;1.10;;;4.50;68.10;;;;;;5054297;28;20025;-75
2021/04/18 02:24:45;;;;;;;1.45;1.20;;;4.50;68.30;;;;;;5054398;28;20024;-75
2021/04/18 02:27:14;;;;;;;1.20;1.15;;;4.40;68.40;;;;;;5055061;28;20017;-74
2021/04/18 02:29:40;;;;;;;1.05;0.98;;;4.40;68.70;;;;;;5055451;28;20057;-74
2021/04/18 02:32:06;;;;;;;2.17;1.02;;;4.30;68.80;;;;;;5058788;28;20055;-74
2021/04/18 02:34:31;;;;;;;0.90;0.80;;;4.20;69.00;;;;;;5055500;28;20032;-75
2021/04/18 02:36:57;;;;;;;1.48;1.10;;;4.20;69.10;;;;;;5055508;28;20442;-75
2021/04/18 02:39:22;;;;;;;1.25;1.15;;;4.10;69.30;;;;;;5055251;28;20021;-75
2021/04/18 02:41:48;;;;;;;0.95;0.70;;;4.10;69.30;;;;;;5053599;28;20370;-75
2021/04/18 02:44:14;;;;;;;1.20;1.10;;;4.10;69.40;;;;;;5055363;28;20037;-74
2021/04/18 02:46:40;;;;;;;1.02;0.73;;;4.00;69.60;;;;;;5055309;28;20140;-75
2021/04/18 02:49:05;;;;;;;2.10;0.70;;;4.00;69.70;;;;;;5054964;28;20033;-75
2021/04/18 02:51:31;;;;;;;0.70;0.70;;;3.90;69.80;;;;;;5055185;28;20036;-74
2021/04/18 02:53:59;;;;;;;1.60;1.15;;;3.90;69.90;;;;;;5055138;28;20025;-75
2021/04/18 02:56:26;;;;;;;1.63;1.15;;;3.90;69.90;;;;;;5054552;28;20024;-76
2021/04/18 02:58:51;;;;;;;1.67;1.27;;;3.90;69.90;;;;;;5053549;28;20025;-76
2021/04/18 03:01:17;;;;;;;2.47;1.30;;;3.90;70.00;;;;;;5055081;28;20025;-75
2021/04/18 03:03:43;;;;;;;2.22;1.70;;;3.80;70.00;;;;;;5054874;28;20044;-76
2021/04/18 03:06:09;;;;;;;1.15;1.00;;;3.90;70.20;;;;;;5054840;28;20053;-74
2021/04/18 03:08:35;;;;;;;1.60;1.15;;;3.90;70.20;;;;;;5054776;28;20029;-74
2021/04/18 03:11:00;;;;;;;1.98;1.73;;;3.90;70.30;;;;;;5054065;28;20036;-74
2021/04/18 03:13:26;;;;;;;2.17;0.93;;;3.90;70.40;;;;;;5053494;28;20017;-74
2021/04/18 03:15:51;;;;;;;1.17;1.00;;;3.80;70.40;;;;;;5054599;28;20029;-75
2021/04/18 03:18:17;;;;;;;2.30;1.00;;;3.80;70.60;;;;;;5054647;28;20070;-75
2021/04/18 03:20:42;;;;;;;2.65;1.45;;;3.80;70.60;;;;;;5053198;28;20028;-75
2021/04/18 03:23:08;;;;;;;1.65;1.13;;;3.80;70.70;;;;;;5054651;28;20071;-75
2021/04/18 03:25:34;;;;;;;1.90;1.10;;;3.90;70.80;;;;;;5054039;28;20016;-75
2021/04/18 03:27:59;;;;;;;0.70;0.68;;;3.90;70.70;;;;;;5054409;28;20104;-74
2021/04/18 03:30:25;;;;;;;2.13;1.25;;;3.90;70.80;;;;;;5054428;28;20115;-74
2021/04/18 03:32:51;;;;;;;0.85;0.85;;;3.90;70.80;;;;;;5052818;28;20049;-74
2021/04/18 03:35:16;;;;;;;2.90;1.20;;;3.90;70.90;;;;;;5054281;28;20021;-76
2021/04/18 03:37:42;;;;;;;2.28;1.40;;;4.00;70.90;;;;;;5054233;28;20362;-76
2021/04/18 03:40:08;;;;;;;1.10;1.00;;;3.90;71.00;;;;;;5053665;28;20473;-74
2021/04/18 03:42:34;;;;;;;2.90;1.88;;;3.90;71.20;;;;;;5054058;28;20025;-75
2021/04/18 03:44:59;;;;;;;1.80;1.33;;;3.90;71.30;;;;;;5053908;28;20388;-74
2021/04/18 03:47:25;;;;;;;1.33;1.10;;;3.90;71.30;;;;;;5053872;28;20025;-74
2021/04/18 03:49:50;;;;;;;1.80;1.48;;;3.90;71.40;;;;;;5053689;28;20091;-74
2021/04/18 03:52:16;;;;;;;1.48;0.93;;;3.90;71.50;;;;;;5053662;28;20427;-75
2021/04/18 03:54:44;;;;;;;1.63;1.30;;;3.90;71.60;;;;;;5053309;28;20032;-76
2021/04/18 03:57:10;;;;;;;1.63;1.17;;;3.90;71.80;;;;;;5053687;28;20087;-76
2021/04/18 03:59:35;;;;;;;1.23;1.10;;;3.90;71.80;;;;;;5053812;28;20473;-75
2021/04/18 04:02:01;;;;;;;1.35;1.25;;;3.90;71.70;;;;;;5053773;28;20350;-75
2021/04/18 04:04:26;;;;;;;1.35;1.10;;;3.90;71.80;;;;;;5054008;28;20033;-76
2021/04/18 04:06:52;;;;;;;3.17;1.20;;;3.90;72.00;;;;;;5053740;28;20028;-76
2021/04/18 04:09:18;;;;;;;1.75;1.20;;;3.80;72.00;;;;;;5051777;28;20025;-75
2021/04/18 04:11:43;;;;;;;1.80;1.25;;;3.80;72.20;;;;;;5053637;28;20027;-75
2021/04/18 04:14:09;;;;;;;2.35;1.10;;;3.70;72.20;;;;;;5053553;28;20025;-76
2021/04/18 04:16:34;;;;;;;0.90;0.90;;;3.60;72.30;;;;;;5052229;28;20020;-74
2021/04/18 04:19:00;;;;;;;1.33;0.90;;;3.60;72.50;;;;;;5053492;28;20104;-75
2021/04/18 04:21:25;;;;;;;1.77;1.10;;;3.40;72.60;;;;;;5053222;28;20032;-75
2021/04/18 04:23:51;;;;;;;0.95;0.88;;;3.20;72.80;;;;;;5052913;28;20021;-75
2021/04/18 04:26:16;;;;;;;1.20;0.93;;;3.10;73.00;;;;;;5053355;28;20114;-76
2021/04/18 04:28:42;;;;;;;2.05;1.30;;;3.00;73.20;;;;;;5053190;28;20416;-75
2021/04/18 04:31:07;;;;;;;0.65;0.65;;;2.90;73.40;;;;;;5053149;28;20033;-75
2021/04/18 04:33:37;;;;;;;0.73;0.68;;;2.90;73.40;;;;;;5056090;28;20047;-75
2021/04/18 04:36:04;;;;;;;0.68;0.68;;;2.90;73.40;;;;;;5053188;28;20485;-74
2021/04/18 04:38:31;;;;;;;0.70;0.70;;;2.80;73.40;;;;;;5052526;28;20052;-74
2021/04/18 04:40:57;;;;;;;0.60;0.60;;;2.90;73.50;;;;;;5053124;28;20523;-76
2021/04/18 04:43:22;;;;;;;0.98;0.98;;;2.80;73.40;;;;;;5053094;28;20028;-75
2021/04/18 04:45:48;;;;;;;0.57;0.57;;;2.80;73.50;;;;;;5052029;28;20078;-75
2021/04/18 04:48:13;;;;;;;0.45;0.45;;;2.80;73.60;;;;;;5052935;28;20508;-74
2021/04/18 04:50:39;;;;;;;0.50;0.50;;;2.70;73.60;;;;;;5052809;28;20029;-75
2021/04/18 04:53:04;;;;;;;0.57;0.50;;;2.70;73.60;;;;;;5052485;28;20805;-74
2021/04/18 04:55:30;;;;;;;0.50;0.50;;;2.80;73.70;;;;;;5051635;28;20512;-74
2021/04/18 04:57:56;;;;;;;0.90;0.47;;;2.70;73.60;;;;;;5052836;28;20465;-74
2021/04/18 05:00:22;;;;;;;0.43;0.43;;;2.80;73.70;;;;;;5053256;28;20100;-75
2021/04/18 05:02:48;;;;;;;0.40;0.40;;;2.80;73.70;;;;;;5053110;28;20504;-75
2021/04/18 05:05:13;;;;;;;0.85;0.60;;;2.80;73.70;;;;;;5055842;28;20028;-75
2021/04/18 05:07:39;;;;;;;0.45;0.45;;;2.80;73.60;;;;;;5056647;28;20104;-74
2021/04/18 05:10:05;;;;;;;1.55;1.10;;;2.90;73.70;;;;;;5056826;28;20047;-75
2021/04/18 05:12:31;;;;;;;0.60;0.60;;;2.90;73.80;;;;;;5057141;28;20071;-74
2021/04/18 05:14:56;;;;;;;0.60;0.60;;;3.00;73.80;;;;;;5057096;28;20459;-75
2021/04/18 05:17:22;;;;;;;0.60;0.60;;;3.00;73.70;;;;;;5056985;28;20048;-75
2021/04/18 05:19:47;;;;;;;0.43;0.43;;;3.00;73.60;;;;;;5056957;28;20074;-75
2021/04/18 05:22:13;;;;;;;0.50;0.50;;;3.10;73.60;;;;;;5056213;28;20032;-74
2021/04/18 05:24:38;;;;;;;1.08;0.88;;;3.20;73.60;;;;;;5056790;28;20104;-75
2021/04/18 05:27:04;;;;;;;0.45;0.45;;;3.20;73.50;;;;;;5056759;28;20108;-73
2021/04/18 05:29:30;;;;;;;0.65;0.52;;;3.30;73.50;;;;;;5055540;28;20033;-75
2021/04/18 05:31:55;;;;;;;0.95;0.60;;;3.40;73.40;;;;;;5056502;28;20074;-74
2021/04/18 05:34:22;;;;;;;0.93;0.40;;;3.50;73.40;;;;;;5056436;28;20060;-75
2021/04/18 05:36:47;;;;;;;1.40;0.60;;;3.70;73.30;;;;;;5056074;28;20017;-75
2021/04/18 05:39:13;;;;;;;1.17;0.60;;;3.80;73.20;;;;;;5056652;28;20039;-75
2021/04/18 05:41:39;;;;;;;0.70;0.70;;;3.90;73.10;;;;;;5056532;28;20028;-76
2021/04/18 05:44:07;;;;;;;0.52;0.50;;;4.10;73.10;;;;;;5056298;28;20029;-76
2021/04/18 05:46:33;;;;;;;0.60;0.60;;;4.20;72.90;;;;;;5056552;28;20457;-75
2021/04/18 05:48:58;;;;;;;0.70;0.55;;;4.40;72.90;;;;;;5054994;28;20029;-75
2021/04/18 05:51:24;;;;;;;0.57;0.57;;;4.60;72.70;;;;;;5055772;28;20051;-75
2021/04/18 05:53:49;;;;;;;0.75;0.60;;;4.80;72.70;;;;;;5056139;28;20071;-73
2021/04/18 05:56:15;;;;;;;0.85;0.77;;;4.90;72.50;;;;;;5056253;28;20025;-75
2021/04/18 05:58:41;;;;;;;1.02;0.60;;;5.10;72.40;;;;;;5056113;28;20377;-75
2021/04/18 06:01:06;;;;;;;1.02;0.95;;;5.20;72.30;;;;;;5054680;28;20509;-73
2021/04/18 06:03:32;;;;;;;1.55;1.15;;;5.40;72.30;;;;;;5055951;28;20359;-75
2021/04/18 06:05:57;;;;;;;2.00;1.27;;;5.50;72.30;;;;;;5055641;28;20036;-75
2021/04/18 06:08:23;;;;;;;1.23;1.00;;;5.60;72.30;;;;;;5056099;28;20021;-75
2021/04/18 06:10:48;;;;;;;2.20;1.35;;;5.80;72.30;;;;;;5055824;28;20040;-75
2021/04/18 06:13:14;;;;;;;1.50;1.23;;;5.90;72.30;;;;;;5055891;28;20027;-75
2021/04/18 06:15:40;;;;;;;1.30;0.90;;;6.00;72.30;;;;;;5055753;28;20021;-75
2021/04/18 06:18:05;;;;;;;2.28;1.75;;;6.10;72.30;;;;;;5056119;28;20029;-75
2021/04/18 06:20:31;;;;;;;1.92;1.40;;;6.20;72.30;;;;;;5055324;28;20044;-76
2021/04/18 06:22:56;;;;;;;2.78;1.40;;;6.30;72.30;;;;;;5055859;28;20032;-76
2021/04/18 06:25:22;;;;;;;2.15;1.50;;;6.40;72.30;;;;;;5055792;28;20028;-75
2021/04/18 06:27:47;;;;;;;3.83;2.03;;;6.50;72.50;;;;;;5055747;28;20027;-76
2021/04/18 06:30:13;;;;;;;2.05;1.20;;;6.50;72.50;;;;;;5055430;28;20120;-75
2021/04/18 06:32:39;;;;;;;2.30;1.52;;;6.60;72.50;;;;;;5055144;28;20512;-74
2021/04/18 06:35:07;;;;;;;1.58;1.20;;;6.70;72.50;;;;;;5058400;28;20041;-75
2021/04/18 06:37:33;;;;;;;1.25;0.98;;;6.80;72.40;;;;;;5055020;28;20029;-76
2021/04/18 06:39:58;;;;;;;2.35;1.63;;;6.90;72.40;;;;;;5054025;28;20024;-75
2021/04/18 06:42:26;;;;;;;1.33;1.00;;;7.00;72.30;;;;;;5055298;28;20021;-74
2021/04/18 06:44:52;;;;;;;1.33;1.05;;;7.10;72.10;;;;;;5055206;28;20029;-75
2021/04/18 06:47:21;;;;;;;1.83;1.40;;;7.20;72.00;;;;;;5055146;28;20025;-75
2021/04/18 06:49:47;;;;;;;1.52;0.95;;;7.20;72.00;;;;;;5055206;28;20044;-75
2021/04/18 06:52:13;;;;;;;1.60;1.00;;;7.30;72.00;;;;;;5055026;28;20021;-74
2021/04/18 06:54:39;;;;;;;1.42;1.33;;;7.30;71.70;;;;;;5055464;28;20496;-82
2021/04/18 06:57:05;;;;;;;0.85;0.80;;;7.50;71.50;;;;;;5055068;28;20021;-77
2021/04/18 06:59:37;;;;;;;1.20;0.90;;;7.70;71.20;;;;;;5054977;28;20025;-75
2021/04/18 07:02:06;;;;;;;0.65;0.50;;;7.80;70.90;;;;;;5054344;28;20033;-76
2021/04/18 07:04:33;;;;;;;0.43;0.43;;;8.00;70.70;;;;;;5055134;28;20035;-77
2021/04/18 07:07:00;;;;;;;0.70;0.60;;;8.20;70.40;;;;;;5054960;28;20485;-77
2021/04/18 07:09:26;;;;;;;1.13;0.80;;;8.30;70.30;;;;;;5054639;28;20068;-77
2021/04/18 07:11:54;;;;;;;0.80;0.73;;;8.30;70.20;;;;;;5054733;28;20056;-78
2021/04/18 07:14:34;;;;;;;0.60;0.60;;;8.40;70.10;;;;;;5053478;28;20116;-77
2021/04/18 07:17:12;;;;;;;1.20;1.10;;;8.50;70.00;;;;;;5053395;28;20496;-77
2021/04/18 07:19:44;;;;;;;2.67;1.58;;;8.60;69.90;;;;;;5054552;28;20021;-75
2021/04/18 07:22:11;;;;;;;2.15;1.52;;;8.50;70.00;;;;;;5054537;28;20104;-75
2021/04/18 07:24:48;;;;;;;3.55;2.08;;;8.30;70.40;;;;;;5054436;28;20477;-74
2021/04/18 07:27:14;;;;;;;2.55;1.63;;;8.30;70.80;;;;;;5053769;28;20060;-75
2021/04/18 07:29:40;;;;;;;2.38;1.60;;;8.20;71.00;;;;;;5054360;28;20091;-77
2021/04/18 07:32:23;;;;;;;3.85;2.22;;;8.20;71.20;;;;;;5053911;28;20104;-77
2021/04/18 07:34:49;;;;;;;3.03;1.70;;;8.20;71.00;;;;;;5054491;28;20124;-76
2021/04/18 07:37:21;;;;;;;1.88;1.63;;;8.30;71.10;;;;;;5054402;28;20035;-76
2021/04/18 07:40:01;;;;;;;1.85;1.55;;;8.30;71.00;;;;;;5054297;28;20033;-75
2021/04/18 07:42:31;;;;;;;2.63;2.08;;;8.40;70.90;;;;;;5054314;28;20078;-76
2021/04/18 07:44:58;;;;;;;1.02;1.00;;;8.50;70.70;;;;;;5054141;28;20029;-76
2021/04/18 07:47:26;;;;;;;1.92;1.55;;;8.50;70.50;;;;;;5053776;28;20025;-76
2021/04/18 07:49:53;;;;;;;1.45;1.25;;;8.70;70.20;;;;;;5054007;28;20032;-74
2021/04/18 07:52:19;;;;;;;2.42;1.67;;;8.80;70.00;;;;;;5053919;28;20078;-76
2021/04/18 07:54:45;;;;;;;2.17;1.45;;;8.90;69.70;;;;;;5053905;28;20029;-76
2021/04/18 07:57:10;;;;;;;3.45;1.65;;;8.90;69.50;;;;;;5053958;28;20047;-76
2021/04/18 07:59:38;;;;;;;1.40;1.30;;;9.10;69.30;;;;;;5053945;28;20074;-76
2021/04/18 08:02:04;;;;;;;1.77;1.33;;;9.30;69.00;;;;;;5051953;28;20009;-76
2021/04/18 08:04:30;;;;;;;1.95;1.73;;;9.50;68.60;;;;;;5053780;28;20108;-75
2021/04/18 08:06:56;;;;;;;2.40;1.75;;;9.60;68.30;;;;;;5052609;28;20044;-76
2021/04/18 08:09:23;;;;;;;2.47;1.55;;;9.70;68.30;;;;;;5053518;28;20470;-76
2021/04/18 08:12:09;;;;;;;3.42;2.30;;;9.90;68.00;;;;;;5054305;28;20055;-76
2021/04/18 08:14:35;;;;;;;2.70;1.88;;;10.20;67.70;;;;;;5053072;28;20111;-76
2021/04/18 08:17:04;;;;;;;3.17;1.88;;;10.30;68.30;;;;;;5053580;28;20086;-76
2021/04/18 08:19:30;;;;;;;3.72;1.90;;;10.40;67.50;;;;;;5053527;28;20091;-77
2021/04/18 08:21:55;;;;;;;1.70;1.60;;;10.50;67.50;;;;;;5052199;28;20478;-76
2021/04/18 08:24:20;;;;;;;1.67;1.40;;;10.70;67.30;;;;;;5053403;28;20013;-76
2021/04/18 08:27:01;;;;;;;1.70;1.48;;;10.90;67.20;;;;;;5053376;28;20505;-75
2021/04/18 08:29:27;;;;;;;1.95;1.60;;;10.90;66.90;;;;;;5052912;28;20037;-75
2021/04/18 08:31:59;;;;;;;2.38;1.58;;;10.90;67.10;;;;;;5053315;28;20427;-74
2021/04/18 08:34:39;;;;;;;2.30;1.88;;;10.90;67.30;;;;;;5053299;28;20114;-74
2021/04/18 08:37:13;;;;;;;4.07;1.80;;;10.80;67.30;;;;;;5053293;28;20036;-75
2021/04/18 08:39:40;;;;;;;3.22;1.55;;;10.90;67.30;;;;;;5052429;28;20025;-74
2021/04/18 08:42:08;;;;;;;2.05;1.73;;;11.00;67.20;;;;;;5053106;28;20029;-74
2021/04/18 08:44:39;;;;;;;1.55;1.35;;;11.10;67.10;;;;;;5052765;28;20096;-72
2021/04/18 08:47:31;;;;;;;2.47;1.50;;;11.10;66.90;;;;;;5053301;28;20029;-74
2021/04/18 08:50:14;;;;;;;1.42;1.30;;;11.10;67.00;;;;;;5054278;28;20033;-73
2021/04/18 08:52:39;;;;;;;1.77;1.30;;;11.10;67.00;;;;;;5053733;28;20021;-72
2021/04/18 08:55:14;;;;;;;2.13;1.50;;;11.10;67.10;;;;;;5053052;28;20025;-73
2021/04/18 08:57:40;;;;;;;2.22;1.50;;;11.10;66.90;;;;;;5053119;28;20373;-74
2021/04/18 09:00:14;;;;;;;1.40;1.30;;;11.20;66.80;;;;;;5052638;28;20496;-74
2021/04/18 09:02:40;;;;;;;3.78;1.67;;;11.30;66.50;;;;;;5053068;28;20028;-74
2021/04/18 09:05:14;;;;;;;1.17;1.08;;;11.30;66.40;;;;;;5052859;28;20495;-74
2021/04/18 09:07:41;;;;;;;1.92;1.58;;;11.40;66.20;;;;;;5053048;28;20029;-73
2021/04/18 09:10:11;;;;;;;1.20;1.10;;;11.40;66.10;;;;;;5051621;28;20389;-75
2021/04/18 09:12:36;;;;;;;1.75;1.35;;;11.40;66.00;;;;;;5052450;28;20036;-74
2021/04/18 09:15:05;;;;;;;1.65;1.42;;;11.50;65.80;;;;;;5052924;28;20025;-73
2021/04/18 09:17:32;;;;;;;2.10;1.30;;;11.60;65.50;;;;;;5051517;28;20071;-74
2021/04/18 09:20:00;;;;;;;1.20;1.10;;;11.60;65.40;;;;;;5052767;28;20025;-74
2021/04/18 09:22:30;;;;;;;1.00;1.00;;;11.70;65.30;;;;;;5052764;28;20020;-74
2021/04/18 09:24:57;;;;;;;1.65;1.10;;;11.80;65.10;;;;;;5052760;28;20121;-74
2021/04/18 09:27:26;;;;;;;1.38;1.25;;;11.90;65.00;;;;;;5052381;28;20021;-74
2021/04/18 09:30:00;;;;;;;1.20;1.10;;;11.90;64.80;;;;;;5052464;28;20068;-74
2021/04/18 09:32:37;;;;;;;1.05;1.00;;;12.00;64.60;;;;;;5052438;28;20025;-74
2021/04/18 09:35:03;;;;;;;1.17;1.08;;;12.10;64.40;;;;;;5051306;28;20033;-75
2021/04/18 09:37:35;;;;;;;3.35;1.48;;;12.20;64.20;;;;;;5052380;28;20024;-74
2021/04/18 09:40:15;;;;;;;1.20;1.10;;;12.20;63.80;;;;;;5052638;28;20036;-74
2021/04/18 09:42:46;;;;;;;;;;;12.40;63.60;;;;;;5051170;28;20028;-75
2021/04/18 09:45:17;;;;;;;1.52;1.30;;;12.40;63.70;;;;;;5052629;28;19912;-77
2021/04/18 09:47:45;;;;;;;1.58;1.35;;;12.60;63.30;;;;;;5052637;28;20033;-73
2021/04/18 09:50:33;;;;;;;1.83;1.67;;;12.90;62.70;;;;;;5053380;28;20393;-75
2021/04/18 09:53:25;;;;;;;1.73;1.33;;;13.00;62.30;;;;;;5056055;28;20029;-76
2021/04/18 09:56:05;;;;;;;1.95;1.35;;;13.20;62.10;;;;;;5055694;28;20025;-74
2021/04/18 09:58:31;;;;;;;;;;;13.30;61.70;;;;;;5056529;28;20492;-74
2021/04/18 10:00:58;;;;;;;1.50;1.30;;;13.30;61.90;;;;;;5056162;28;19955;-75
2021/04/18 10:03:38;;;;;;;1.05;0.93;;;13.50;61.60;;;;;;5055967;28;20035;-75
2021/04/18 10:06:05;;;;;;;1.38;1.00;;;13.90;61.00;;;;;;5055865;28;20097;-75
2021/04/18 10:08:33;;;;;;;1.40;1.30;;;14.10;60.70;;;;;;5055914;28;20580;-74
2021/04/18 10:11:08;;;;;;;1.27;1.08;;;14.20;60.40;;;;;;5055332;28;20033;-74
2021/04/18 10:13:43;;;;;;;2.30;1.10;;;14.20;60.40;;;;;;5058995;28;20108;-74
2021/04/18 10:16:10;;;;;;;1.77;1.30;;;14.20;60.50;;;;;;5055777;28;20377;-73
2021/04/18 10:18:38;;;;;;;1.88;1.60;;;14.20;60.40;;;;;;5054375;28;20026;-74
2021/04/18 10:21:21;;;;;;;2.55;2.05;;;14.20;60.10;;;;;;5054516;28;20025;-73
2021/04/18 10:23:48;;;;;;;3.92;2.15;;;14.10;59.90;;;;;;5055703;28;20085;-73
2021/04/18 10:26:21;;;;;;;2.53;1.88;;;14.00;60.20;;;;;;5055126;28;20136;-73
2021/04/18 10:28:49;;;;;;;2.03;1.58;;;14.00;60.20;;;;;;5054178;28;20028;-75
2021/04/18 10:31:15;;;;;;;2.83;2.00;;;14.10;60.10;;;;;;5055427;28;20493;-73
2021/04/18 10:33:42;;;;;;;3.35;1.70;;;14.30;59.50;;;;;;5055219;28;20048;-75
2021/04/18 10:36:08;;;;;;;3.10;2.08;;;14.50;59.30;;;;;;5064039;28;20028;-74
2021/04/18 10:38:34;;;;;;;2.80;1.73;;;14.70;58.90;;;;;;5075398;28;20043;-74
2021/04/18 10:41:00;;;;;;;2.60;1.92;;;14.80;58.70;;;;;;5074567;28;20524;-76
2021/04/18 10:43:25;;;;;;;2.35;1.70;;;15.00;58.50;;;;;;5075380;28;20111;-74
2021/04/18 10:45:51;;;;;;;2.08;1.48;;;15.20;58.50;;;;;;5075175;28;20019;-75
2021/04/18 10:48:16;;;;;;;2.28;1.70;;;15.40;58.30;;;;;;5075216;28;20016;-74
2021/04/18 10:50:42;;;;;;;1.73;1.30;;;15.40;58.20;;;;;;5075078;28;20119;-78
2021/04/18 10:53:07;;;;;;;1.63;1.40;;;15.50;58.20;;;;;;5075243;28;20437;-75
2021/04/18 10:55:33;;;;;;;1.10;1.00;;;15.50;58.50;;;;;;5073299;28;20074;-75
2021/04/18 10:57:59;;;;;;;2.70;2.22;;;15.50;58.50;;;;;;5073795;28;20031;-76
2021/04/18 11:00:26;;;;;;;4.13;2.88;;;15.50;58.40;;;;;;5075225;28;20052;-75
2021/04/18 11:02:52;;;;;;;3.25;2.42;;;15.30;58.50;;;;;;5074163;28;20024;-77
2021/04/18 11:05:17;;;;;;;2.60;1.90;;;15.20;58.70;;;;;;5074941;28;20342;-76
2021/04/18 11:07:43;;;;;;;1.95;1.50;;;15.10;58.80;;;;;;5073693;28;20025;-78
2021/04/18 11:10:09;;;;;;;3.28;1.88;;;15.20;58.80;;;;;;5074139;28;20050;-77
2021/04/18 11:12:34;;;;;;;2.72;2.03;;;15.20;58.60;;;;;;5074804;28;20053;-76
2021/04/18 11:15:00;;;;;;;2.47;2.10;;;15.10;58.60;;;;;;5074738;28;20106;-77
2021/04/18 11:17:26;;;;;;;3.33;2.15;;;15.00;58.80;;;;;;5066629;28;20025;-75
2021/04/18 11:19:54;;;;;;;3.28;2.17;;;15.00;58.70;;;;;;5054697;28;20020;-76
2021/04/18 11:22:20;;;;;;;2.60;1.67;;;15.00;58.90;;;;;;5064327;28;20021;-75
2021/04/18 11:24:46;;;;;;;2.90;2.17;;;15.10;58.70;;;;;;5074072;28;20024;-77
2021/04/18 11:27:12;;;;;;;2.28;1.65;;;15.20;58.50;;;;;;5074343;28;20027;-77
2021/04/18 11:29:42;;;;;;;2.22;1.73;;;15.40;58.30;;;;;;5074334;28;20146;-78
2021/04/18 11:32:07;;;;;;;1.77;1.67;;;15.60;57.90;;;;;;5074375;28;20063;-75
2021/04/18 11:34:33;;;;;;;2.08;1.88;;;15.70;57.80;;;;;;5063715;28;20045;-76
2021/04/18 11:36:58;;;;;;;2.35;1.52;;;15.80;57.80;;;;;;5054231;28;20504;-76
2021/04/18 11:39:24;;;;;;;2.58;1.75;;;15.90;57.60;;;;;;5052696;28;20025;-75
2021/04/18 11:41:49;;;;;;;2.30;1.75;;;15.90;57.60;;;;;;5052834;28;20055;-76
2021/04/18 11:44:15;;;;;;;3.75;1.77;;;16.10;57.60;;;;;;5054083;28;20025;-76
2021/04/18 11:46:42;;;;;;;1.80;1.60;;;16.20;57.60;;;;;;5054098;28;20017;-76
2021/04/18 11:49:09;;;;;;;2.00;1.60;;;16.50;57.30;;;;;;5052730;28;20053;-76
2021/04/18 11:51:36;;;;;;;2.60;1.75;;;16.90;56.70;;;;;;5053929;28;20036;-74
2021/04/18 11:54:03;;;;;;;2.13;1.80;;;17.30;56.00;;;;;;5053351;28;20017;-75
2021/04/18 11:56:28;;;;;;;2.00;1.80;;;17.40;55.70;;;;;;5053909;28;20066;-76
2021/04/18 11:58:54;;;;;;;1.88;1.38;;;17.40;55.60;;;;;;5053862;28;20103;-76
2021/04/18 12:01:19;;;;;;;2.90;1.75;;;17.30;55.70;;;;;;5054025;28;20023;-76
2021/04/18 12:03:45;;;;;;;2.15;1.75;;;17.70;55.70;;;;;;5052351;28;20112;-76
2021/04/18 12:06:10;;;;;;;2.08;1.50;;;18.30;54.80;;;;;;5053681;28;20036;-76
2021/04/18 12:08:36;;;;;;;1.45;1.30;;;18.70;54.30;;;;;;5053217;28;20416;-77
2021/04/18 12:11:02;;;;;;;1.70;1.20;;;19.10;53.60;;;;;;5063289;28;20032;-77
2021/04/18 12:13:28;;;;;;;1.63;1.52;;;19.10;53.50;;;;;;5073381;28;20078;-79
2021/04/18 12:15:54;;;;;;;1.85;1.75;;;19.00;53.80;;;;;;5073495;28;20029;-78
2021/04/18 12:18:19;;;;;;;2.45;1.60;;;19.10;53.50;;;;;;5073630;28;20052;-76
2021/04/18 12:20:45;;;;;;;1.50;1.40;;;19.10;53.70;;;;;;5073350;28;20059;-75
2021/04/18 12:23:10;;;;;;;2.70;2.00;;;19.40;53.40;;;;;;5072957;28;20028;-73
2021/04/18 12:25:36;;;;;;;1.92;1.70;;;19.80;52.50;;;;;;5073312;28;20108;-75
2021/04/18 12:28:01;;;;;;;1.65;1.30;;;19.70;52.60;;;;;;5072229;28;20070;-76
2021/04/18 12:30:27;;;;;;;2.40;1.50;;;19.90;52.60;;;;;;5072035;28;20047;-76
2021/04/18 12:32:52;;;;;;;1.63;1.30;;;20.20;52.40;;;;;;5073133;28;20087;-74
2021/04/18 12:35:21;;;;;;;2.55;1.88;;;20.40;52.10;;;;;;5052948;28;20044;-75
2021/04/18 12:37:47;;;;;;;1.33;1.23;;;20.10;52.20;;;;;;5052863;28;20039;-75
2021/04/18 12:40:13;;;;;;;1.38;1.27;;;20.20;52.40;;;;;;5064979;28;20477;-75
2021/04/18 12:42:39;;;;;;;2.97;1.45;;;20.30;52.10;;;;;;5070799;28;20024;-75
2021/04/18 12:45:06;;;;;;;1.75;1.65;;;20.40;51.80;;;;;;5073202;28;20166;-74
2021/04/18 12:47:31;;;;;;;1.65;1.20;;;20.30;52.00;;;;;;5072870;28;20024;-74
2021/04/18 12:49:57;;;;;;;2.70;1.20;;;20.40;51.90;;;;;;5072086;28;20115;-75
2021/04/18 12:52:23;;;;;;;1.75;1.45;;;20.40;51.80;;;;;;5066001;28;20017;-74